PWSweather.com
Personal Weather Stations
Station Observations
WISCHPK61
Green Bay Schmitt Park, Green Bay, WI 54311

Green Bay Schmitt ParkGreen Bay, WI 54311

Lat: 44.514277, Lon: -87.935067

Elevation: 735

Station Type: Acu Rite Pro Weather Center model 02032C

http://greenbayweathercam.com

High Low Average
Temperature 27.5°F-2.5°C 9.3°F-12.6°C 19.7°F-6.8°C
Dew Point 26.0°F-3.3°C 1.6°F-16.9°C 14.2°F-9.9°C
Winds 3.5 mph 5.6 kmh Calm Calm 1.0 mph S1.6 kmh S
Wind Gusts 8.1 mph13.0 kmh -- 2.0 mph3.2 kmh
Humidity 98% 60% 79%
Pressure 29.53 in1000.0 mb 29.06 in984.1 mb -
Precipitation 0.00 in0.0 mm - -
Hour Temp Dew Point Humidity Winds Wind Gusts Pressure Precip Precip Rate Daily Precip Total
12:00 AM 9.3°F-12.6°C 2.4°F-16.4°C 73% Calm Calm 1.2 mph1.9 kmh 29.53 in1000.0 mb - 0.00 in0.0 mm 0.00 in0.0 mm
12:15 AM 9.5°F-12.5°C 2.3°F-16.5°C 72% 1.2 mph SE1.9 kmh SE 2.3 mph3.7 kmh 29.52 in999.7 mb - 0.00 in0.0 mm 0.00 in0.0 mm
12:30 AM 9.7°F-12.4°C 2.5°F-16.4°C 72% Calm Calm 1.2 mph1.9 kmh 29.50 in999.0 mb - 0.00 in0.0 mm 0.00 in0.0 mm
12:45 AM 9.9°F-12.3°C 2.4°F-16.4°C 71% 2.3 mph ESE3.7 kmh ESE 2.3 mph3.7 kmh 29.49 in998.6 mb - 0.00 in0.0 mm 0.00 in0.0 mm
01:00 AM 10.2°F-12.1°C 2.7°F-16.3°C 71% 1.2 mph SE1.9 kmh SE 2.3 mph3.7 kmh 29.49 in998.6 mb - 0.00 in0.0 mm 0.00 in0.0 mm
01:15 AM 10.4°F-12.0°C 2.5°F-16.4°C 70% 1.2 mph WSW1.9 kmh WSW 1.2 mph1.9 kmh 29.46 in997.6 mb - 0.00 in0.0 mm 0.00 in0.0 mm
01:30 AM 10.8°F-11.8°C 2.3°F-16.5°C 68% 1.2 mph S1.9 kmh S 2.3 mph3.7 kmh 29.46 in997.6 mb - 0.00 in0.0 mm 0.00 in0.0 mm
01:45 AM 10.9°F-11.7°C 2.4°F-16.4°C 68% Calm Calm -- 29.46 in997.6 mb - 0.00 in0.0 mm 0.00 in0.0 mm
02:00 AM 11.1°F-11.6°C 2.0°F-16.7°C 66% 1.2 mph SW1.9 kmh SW 1.2 mph1.9 kmh 29.45 in997.3 mb - 0.00 in0.0 mm 0.00 in0.0 mm
02:15 AM 11.7°F-11.3°C 2.2°F-16.6°C 65% 2.3 mph SE3.7 kmh SE 4.6 mph7.4 kmh 29.43 in996.6 mb - 0.00 in0.0 mm 0.00 in0.0 mm
02:30 AM 11.8°F-11.2°C 1.6°F-16.9°C 63% 3.5 mph W5.6 kmh W 4.6 mph7.4 kmh 29.43 in996.6 mb - 0.00 in0.0 mm 0.00 in0.0 mm
02:45 AM 12.2°F-11.0°C 1.7°F-16.8°C 62% 1.2 mph SW1.9 kmh SW 1.2 mph1.9 kmh 29.44 in997.0 mb - 0.00 in0.0 mm 0.00 in0.0 mm
03:00 AM 12.4°F-10.9°C 1.8°F-16.8°C 62% 1.2 mph ESE1.9 kmh ESE 1.2 mph1.9 kmh 29.44 in997.0 mb - 0.00 in0.0 mm 0.00 in0.0 mm
03:15 AM 12.6°F-10.8°C 2.0°F-16.7°C 62% 1.2 mph SE1.9 kmh SE 1.2 mph1.9 kmh 29.41 in995.9 mb - 0.00 in0.0 mm 0.00 in0.0 mm
03:30 AM 12.7°F-10.7°C 1.8°F-16.8°C 61% 2.3 mph SE3.7 kmh SE 3.5 mph5.6 kmh 29.40 in995.6 mb - 0.00 in0.0 mm 0.00 in0.0 mm
03:45 AM 13.1°F-10.5°C 1.8°F-16.8°C 60% 1.2 mph ESE1.9 kmh ESE 3.5 mph5.6 kmh 29.40 in995.6 mb - 0.00 in0.0 mm 0.00 in0.0 mm
04:00 AM 13.2°F-10.4°C 1.9°F-16.7°C 60% 1.2 mph SE1.9 kmh SE 3.5 mph5.6 kmh 29.40 in995.6 mb - 0.00 in0.0 mm 0.00 in0.0 mm
04:15 AM 13.3°F-10.4°C 2.3°F-16.5°C 61% 2.3 mph SE3.7 kmh SE 2.3 mph3.7 kmh 29.39 in995.3 mb - 0.00 in0.0 mm 0.00 in0.0 mm
04:30 AM 13.3°F-10.4°C 2.0°F-16.7°C 60% 3.5 mph ENE5.6 kmh ENE 3.5 mph5.6 kmh 29.38 in994.9 mb - 0.00 in0.0 mm 0.00 in0.0 mm
04:45 AM 13.1°F-10.5°C 4.2°F-15.4°C 67% 2.3 mph NW3.7 kmh NW 3.5 mph5.6 kmh 29.38 in994.9 mb - 0.00 in0.0 mm 0.00 in0.0 mm
05:00 AM 12.1°F-11.1°C 8.4°F-13.1°C 85% 3.5 mph SE5.6 kmh SE 5.8 mph9.3 kmh 29.37 in994.6 mb - 0.00 in0.0 mm 0.00 in0.0 mm
05:15 AM 11.7°F-11.3°C 10.1°F-12.2°C 93% 1.2 mph E1.9 kmh E 1.2 mph1.9 kmh 29.35 in993.9 mb - 0.00 in0.0 mm 0.00 in0.0 mm
05:30 AM 11.5°F-11.4°C 10.1°F-12.2°C 94% 1.2 mph E1.9 kmh E 2.3 mph3.7 kmh 29.34 in993.6 mb - 0.00 in0.0 mm 0.00 in0.0 mm
05:45 AM 11.3°F-11.5°C 10.4°F-12.0°C 96% 1.2 mph ENE1.9 kmh ENE 1.2 mph1.9 kmh 29.34 in993.6 mb - 0.00 in0.0 mm 0.00 in0.0 mm
06:00 AM 11.3°F-11.5°C 10.6°F-11.9°C 97% Calm Calm 2.3 mph3.7 kmh 29.34 in993.6 mb - 0.00 in0.0 mm 0.00 in0.0 mm
06:15 AM 11.5°F-11.4°C 11.0°F-11.7°C 98% 1.2 mph S1.9 kmh S 2.3 mph3.7 kmh 29.33 in993.2 mb - 0.00 in0.0 mm 0.00 in0.0 mm
06:30 AM 11.8°F-11.2°C 11.3°F-11.5°C 98% Calm Calm -- 29.32 in992.9 mb - 0.00 in0.0 mm 0.00 in0.0 mm
06:45 AM 12.4°F-10.9°C 11.9°F-11.2°C 98% Calm Calm 1.2 mph1.9 kmh 29.32 in992.9 mb - 0.00 in0.0 mm 0.00 in0.0 mm
07:00 AM 12.6°F-10.8°C 12.1°F-11.1°C 98% 1.2 mph NE1.9 kmh NE 2.3 mph3.7 kmh 29.31 in992.6 mb - 0.00 in0.0 mm 0.00 in0.0 mm
07:15 AM 13.1°F-10.5°C 12.2°F-11.0°C 96% 1.2 mph SSE1.9 kmh SSE 2.3 mph3.7 kmh 29.30 in992.2 mb - 0.00 in0.0 mm 0.00 in0.0 mm
07:30 AM 13.5°F-10.3°C 12.1°F-11.1°C 94% 2.3 mph NNE3.7 kmh NNE 2.3 mph3.7 kmh 29.29 in991.9 mb - 0.00 in0.0 mm 0.00 in0.0 mm
07:45 AM 13.8°F-10.1°C 12.4°F-10.9°C 94% 2.3 mph SSE3.7 kmh SSE 1.2 mph1.9 kmh 29.28 in991.5 mb - 0.00 in0.0 mm 0.00 in0.0 mm
08:00 AM 14.3°F-9.8°C 11.9°F-11.2°C 90% 2.3 mph SE3.7 kmh SE 4.6 mph7.4 kmh 29.29 in991.9 mb - 0.00 in0.0 mm 0.00 in0.0 mm
08:15 AM 14.5°F-9.7°C 11.9°F-11.2°C 89% 2.3 mph SE3.7 kmh SE 3.5 mph5.6 kmh 29.27 in991.2 mb - 0.00 in0.0 mm 0.00 in0.0 mm
08:30 AM 14.9°F-9.5°C 11.7°F-11.3°C 87% 1.2 mph NE1.9 kmh NE 2.3 mph3.7 kmh 29.27 in991.2 mb - 0.00 in0.0 mm 0.00 in0.0 mm
08:45 AM 15.3°F-9.3°C 11.3°F-11.5°C 84% 2.3 mph S3.7 kmh S 3.5 mph5.6 kmh 29.27 in991.2 mb - 0.00 in0.0 mm 0.00 in0.0 mm
09:00 AM 15.8°F-9.0°C 11.6°F-11.3°C 83% 1.2 mph SSW1.9 kmh SSW 3.5 mph5.6 kmh 29.26 in990.9 mb - 0.00 in0.0 mm 0.00 in0.0 mm
09:15 AM 16.3°F-8.7°C 11.5°F-11.4°C 81% 1.2 mph WNW1.9 kmh WNW 1.2 mph1.9 kmh 29.26 in990.9 mb - 0.00 in0.0 mm 0.00 in0.0 mm
09:30 AM 16.7°F-8.5°C 11.6°F-11.3°C 80% 2.3 mph WNW3.7 kmh WNW 3.5 mph5.6 kmh 29.26 in990.9 mb - 0.00 in0.0 mm 0.00 in0.0 mm
09:45 AM 17.6°F-8.0°C 11.6°F-11.3°C 77% 3.5 mph SW5.6 kmh SW 4.6 mph7.4 kmh 29.25 in990.5 mb - 0.00 in0.0 mm 0.00 in0.0 mm
10:00 AM 18.2°F-7.7°C 11.6°F-11.3°C 75% 2.3 mph SE3.7 kmh SE 2.3 mph3.7 kmh 29.25 in990.5 mb - 0.00 in0.0 mm 0.00 in0.0 mm
10:15 AM 18.5°F-7.5°C 11.6°F-11.3°C 74% 1.2 mph SW1.9 kmh SW 2.3 mph3.7 kmh 29.25 in990.5 mb - 0.00 in0.0 mm 0.00 in0.0 mm
10:30 AM 18.7°F-7.4°C 11.8°F-11.2°C 74% 2.3 mph N3.7 kmh N 4.6 mph7.4 kmh 29.24 in990.2 mb - 0.00 in0.0 mm 0.00 in0.0 mm
10:45 AM 19.9°F-6.7°C 12.3°F-10.9°C 72% 3.5 mph NE5.6 kmh NE 1.2 mph1.9 kmh 29.23 in989.8 mb - 0.00 in0.0 mm 0.00 in0.0 mm
11:00 AM 20.7°F-6.3°C 12.8°F-10.7°C 71% 3.5 mph S5.6 kmh S 8.1 mph13.0 kmh 29.23 in989.8 mb - 0.00 in0.0 mm 0.00 in0.0 mm
11:15 AM 21.0°F-6.1°C 13.4°F-10.3°C 72% 1.2 mph NNW1.9 kmh NNW 3.5 mph5.6 kmh 29.22 in989.5 mb - 0.00 in0.0 mm 0.00 in0.0 mm
11:30 AM 22.5°F-5.3°C 14.5°F-9.7°C 71% 1.2 mph E1.9 kmh E 2.3 mph3.7 kmh 29.21 in989.2 mb - 0.00 in0.0 mm 0.00 in0.0 mm
11:45 AM 23.5°F-4.7°C 15.1°F-9.4°C 70% 2.3 mph NE3.7 kmh NE 6.9 mph11.1 kmh 29.20 in988.8 mb - 0.00 in0.0 mm 0.00 in0.0 mm
12:00 PM 24.4°F-4.2°C 15.3°F-9.3°C 68% 2.3 mph NNW3.7 kmh NNW 3.5 mph5.6 kmh 29.20 in988.8 mb - 0.00 in0.0 mm 0.00 in0.0 mm
12:15 PM 23.9°F-4.5°C 15.5°F-9.2°C 70% 1.2 mph S1.9 kmh S 1.2 mph1.9 kmh 29.19 in988.5 mb - 0.00 in0.0 mm 0.00 in0.0 mm
12:30 PM 23.8°F-4.6°C 15.4°F-9.2°C 70% 2.3 mph NNE3.7 kmh NNE 3.5 mph5.6 kmh 29.19 in988.5 mb - 0.00 in0.0 mm 0.00 in0.0 mm
12:45 PM 24.0°F-4.4°C 16.0°F-8.9°C 71% 2.3 mph WSW3.7 kmh WSW 2.3 mph3.7 kmh 29.18 in988.1 mb - 0.00 in0.0 mm 0.00 in0.0 mm
01:00 PM 24.6°F-4.1°C 16.6°F-8.6°C 71% 2.3 mph S3.7 kmh S 3.5 mph5.6 kmh 29.17 in987.8 mb - 0.00 in0.0 mm 0.00 in0.0 mm
01:15 PM 24.8°F-4.0°C 16.7°F-8.5°C 71% 1.2 mph SW1.9 kmh SW -- 29.16 in987.5 mb - 0.00 in0.0 mm 0.00 in0.0 mm
01:30 PM 24.4°F-4.2°C 16.7°F-8.5°C 72% 1.2 mph SW1.9 kmh SW 3.5 mph5.6 kmh 29.15 in987.1 mb - 0.00 in0.0 mm 0.00 in0.0 mm
01:45 PM 25.0°F-3.9°C 17.6°F-8.0°C 73% Calm Calm 1.2 mph1.9 kmh 29.14 in986.8 mb - 0.00 in0.0 mm 0.00 in0.0 mm
02:00 PM 25.6°F-3.6°C 18.5°F-7.5°C 74% 1.2 mph S1.9 kmh S 1.2 mph1.9 kmh 29.13 in986.5 mb - 0.00 in0.0 mm 0.00 in0.0 mm
02:15 PM 25.9°F-3.4°C 18.4°F-7.6°C 73% 1.2 mph S1.9 kmh S 1.2 mph1.9 kmh 29.12 in986.1 mb - 0.00 in0.0 mm 0.00 in0.0 mm
02:30 PM 25.7°F-3.5°C 18.3°F-7.6°C 73% 3.5 mph E5.6 kmh E 2.3 mph3.7 kmh 29.12 in986.1 mb - 0.00 in0.0 mm 0.00 in0.0 mm
02:45 PM 25.3°F-3.7°C 17.9°F-7.8°C 73% 2.3 mph ESE3.7 kmh ESE 5.8 mph9.3 kmh 29.12 in986.1 mb - 0.00 in0.0 mm 0.00 in0.0 mm
03:00 PM 24.4°F-4.2°C 17.6°F-8.0°C 75% 1.2 mph SE1.9 kmh SE 2.3 mph3.7 kmh 29.12 in986.1 mb - 0.00 in0.0 mm 0.00 in0.0 mm
03:15 PM 23.7°F-4.6°C 17.5°F-8.1°C 77% 1.2 mph SE1.9 kmh SE 1.2 mph1.9 kmh 29.12 in986.1 mb - 0.00 in0.0 mm 0.00 in0.0 mm
03:30 PM 23.2°F-4.9°C 17.7°F-7.9°C 79% 1.2 mph SSE1.9 kmh SSE 1.2 mph1.9 kmh 29.12 in986.1 mb - 0.00 in0.0 mm 0.00 in0.0 mm
03:45 PM 23.4°F-4.8°C 18.1°F-7.7°C 80% Calm Calm -- 29.12 in986.1 mb - 0.00 in0.0 mm 0.00 in0.0 mm
04:00 PM 23.5°F-4.7°C 18.2°F-7.7°C 80% 1.2 mph SSW1.9 kmh SSW 1.2 mph1.9 kmh 29.12 in986.1 mb - 0.00 in0.0 mm 0.00 in0.0 mm
04:15 PM 23.7°F-4.6°C 18.7°F-7.4°C 81% 1.2 mph NW1.9 kmh NW 1.2 mph1.9 kmh 29.11 in985.8 mb - 0.00 in0.0 mm 0.00 in0.0 mm
04:30 PM 24.1°F-4.4°C 19.1°F-7.2°C 81% Calm Calm -- 29.11 in985.8 mb - 0.00 in0.0 mm 0.00 in0.0 mm
04:45 PM 24.1°F-4.4°C 19.4°F-7.0°C 82% 1.2 mph S1.9 kmh S 1.2 mph1.9 kmh 29.10 in985.4 mb - 0.00 in0.0 mm 0.00 in0.0 mm
05:00 PM 24.3°F-4.3°C 19.6°F-6.9°C 82% Calm Calm -- 29.10 in985.4 mb - 0.00 in0.0 mm 0.00 in0.0 mm
05:15 PM 24.4°F-4.2°C 20.0°F-6.7°C 83% Calm Calm 1.2 mph1.9 kmh 29.10 in985.4 mb - 0.00 in0.0 mm 0.00 in0.0 mm
05:30 PM 24.6°F-4.1°C 20.2°F-6.6°C 83% Calm Calm -- 29.11 in985.8 mb - 0.00 in0.0 mm 0.00 in0.0 mm
05:45 PM 24.8°F-4.0°C 20.7°F-6.3°C 84% 1.2 mph ESE1.9 kmh ESE 2.3 mph3.7 kmh 29.11 in985.8 mb - 0.00 in0.0 mm 0.00 in0.0 mm
06:00 PM 25.3°F-3.7°C 20.8°F-6.2°C 83% 1.2 mph SSW1.9 kmh SSW 1.2 mph1.9 kmh 29.11 in985.8 mb - 0.00 in0.0 mm 0.00 in0.0 mm
06:15 PM 25.7°F-3.5°C 21.0°F-6.1°C 82% Calm Calm -- 29.11 in985.8 mb - 0.00 in0.0 mm 0.00 in0.0 mm
06:30 PM 25.9°F-3.4°C 21.2°F-6.0°C 82% 1.2 mph S1.9 kmh S 1.2 mph1.9 kmh 29.10 in985.4 mb - 0.00 in0.0 mm 0.00 in0.0 mm
06:45 PM 25.9°F-3.4°C 21.2°F-6.0°C 82% Calm Calm 1.2 mph1.9 kmh 29.10 in985.4 mb - 0.00 in0.0 mm 0.00 in0.0 mm
07:00 PM 25.9°F-3.4°C 21.2°F-6.0°C 82% Calm Calm -- 29.10 in985.4 mb - 0.00 in0.0 mm 0.00 in0.0 mm
07:15 PM 25.9°F-3.4°C 21.4°F-5.9°C 83% 1.2 mph SW1.9 kmh SW 2.3 mph3.7 kmh 29.10 in985.4 mb - 0.00 in0.0 mm 0.00 in0.0 mm
07:30 PM 25.9°F-3.4°C 21.7°F-5.7°C 84% 1.2 mph SE1.9 kmh SE 1.2 mph1.9 kmh 29.10 in985.4 mb - 0.00 in0.0 mm 0.00 in0.0 mm
07:45 PM 25.9°F-3.4°C 22.0°F-5.6°C 85% 1.2 mph SSE1.9 kmh SSE 1.2 mph1.9 kmh 29.09 in985.1 mb - 0.00 in0.0 mm 0.00 in0.0 mm
08:00 PM 25.9°F-3.4°C 22.0°F-5.6°C 85% 1.2 mph W1.9 kmh W 2.3 mph3.7 kmh 29.08 in984.8 mb - 0.00 in0.0 mm 0.00 in0.0 mm
08:15 PM 26.1°F-3.3°C 22.8°F-5.1°C 87% Calm Calm -- 29.09 in985.1 mb - 0.00 in0.0 mm 0.00 in0.0 mm
08:30 PM 26.4°F-3.1°C 23.1°F-4.9°C 87% Calm Calm 1.2 mph1.9 kmh 29.09 in985.1 mb - 0.00 in0.0 mm 0.00 in0.0 mm
08:45 PM 26.6°F-3.0°C 23.3°F-4.8°C 87% Calm Calm 1.2 mph1.9 kmh 29.08 in984.8 mb - 0.00 in0.0 mm 0.00 in0.0 mm
09:00 PM 26.8°F-2.9°C 23.7°F-4.6°C 88% Calm Calm 1.2 mph1.9 kmh 29.08 in984.8 mb - 0.00 in0.0 mm 0.00 in0.0 mm
09:15 PM 27.1°F-2.7°C 24.0°F-4.4°C 88% 1.2 mph SSE1.9 kmh SSE 2.3 mph3.7 kmh 29.07 in984.4 mb - 0.00 in0.0 mm 0.00 in0.0 mm
09:30 PM 27.1°F-2.7°C 24.0°F-4.4°C 88% Calm Calm 1.2 mph1.9 kmh 29.07 in984.4 mb - 0.00 in0.0 mm 0.00 in0.0 mm
09:45 PM 27.1°F-2.7°C 24.0°F-4.4°C 88% 1.2 mph S1.9 kmh S 1.2 mph1.9 kmh 29.07 in984.4 mb - 0.00 in0.0 mm 0.00 in0.0 mm
10:00 PM 27.3°F-2.6°C 24.5°F-4.2°C 89% Calm Calm -- 29.07 in984.4 mb - 0.00 in0.0 mm 0.00 in0.0 mm
10:15 PM 27.3°F-2.6°C 24.8°F-4.0°C 90% 1.2 mph WSW1.9 kmh WSW 1.2 mph1.9 kmh 29.07 in984.4 mb - 0.00 in0.0 mm 0.00 in0.0 mm
10:30 PM 27.4°F-2.6°C 24.8°F-4.0°C 90% 1.2 mph SSW1.9 kmh SSW 2.3 mph3.7 kmh 29.07 in984.4 mb - 0.00 in0.0 mm 0.00 in0.0 mm
10:45 PM 27.5°F-2.5°C 25.2°F-3.8°C 91% Calm Calm -- 29.07 in984.4 mb - 0.00 in0.0 mm 0.00 in0.0 mm
11:00 PM 27.5°F-2.5°C 25.5°F-3.6°C 92% Calm Calm 1.2 mph1.9 kmh 29.07 in984.4 mb - 0.00 in0.0 mm 0.00 in0.0 mm
11:15 PM 27.5°F-2.5°C 26.0°F-3.3°C 94% 2.3 mph SE3.7 kmh SE 5.8 mph9.3 kmh 29.07 in984.4 mb - 0.00 in0.0 mm 0.00 in0.0 mm
11:30 PM 27.5°F-2.5°C 26.0°F-3.3°C 94% Calm Calm -- 29.06 in984.1 mb - 0.00 in0.0 mm 0.00 in0.0 mm
11:45 PM 27.5°F-2.5°C 26.0°F-3.3°C 94% Calm Calm -- 29.07 in984.4 mb - 0.00 in0.0 mm 0.00 in0.0 mm